sensor_id;sensor_type;location;lat;lon;timestamp;P1;durP1;ratioP1;P2;durP2;ratioP2
49578;SDS011;35483;50.828;3.228;2022-10-31T00:02:22;6.70;;;4.93;;
49578;SDS011;35483;50.828;3.228;2022-10-31T00:04:48;6.70;;;4.82;;
49578;SDS011;35483;50.828;3.228;2022-10-31T00:07:13;6.65;;;4.93;;
49578;SDS011;35483;50.828;3.228;2022-10-31T00:09:39;5.40;;;4.90;;
49578;SDS011;35483;50.828;3.228;2022-10-31T00:12:05;8.20;;;5.18;;
49578;SDS011;35483;50.828;3.228;2022-10-31T00:14:30;7.40;;;4.78;;
49578;SDS011;35483;50.828;3.228;2022-10-31T00:16:56;5.85;;;4.10;;
49578;SDS011;35483;50.828;3.228;2022-10-31T00:19:22;6.72;;;5.20;;
49578;SDS011;35483;50.828;3.228;2022-10-31T00:21:47;8.65;;;4.97;;
49578;SDS011;35483;50.828;3.228;2022-10-31T00:24:13;8.05;;;4.65;;
49578;SDS011;35483;50.828;3.228;2022-10-31T00:26:38;5.82;;;5.22;;
49578;SDS011;35483;50.828;3.228;2022-10-31T00:29:04;5.35;;;4.82;;
49578;SDS011;35483;50.828;3.228;2022-10-31T00:31:30;5.10;;;4.40;;
49578;SDS011;35483;50.828;3.228;2022-10-31T00:33:56;6.85;;;4.70;;
49578;SDS011;35483;50.828;3.228;2022-10-31T00:36:22;5.88;;;4.65;;
49578;SDS011;35483;50.828;3.228;2022-10-31T00:38:48;6.53;;;4.40;;
49578;SDS011;35483;50.828;3.228;2022-10-31T00:41:15;4.50;;;4.07;;
49578;SDS011;35483;50.828;3.228;2022-10-31T00:43:41;5.50;;;4.63;;
49578;SDS011;35483;50.828;3.228;2022-10-31T00:46:08;5.35;;;3.72;;
49578;SDS011;35483;50.828;3.228;2022-10-31T00:48:34;5.43;;;4.55;;
49578;SDS011;35483;50.828;3.228;2022-10-31T00:51:00;5.55;;;4.63;;
49578;SDS011;35483;50.828;3.228;2022-10-31T00:53:26;6.68;;;4.45;;
49578;SDS011;35483;50.828;3.228;2022-10-31T00:55:51;5.60;;;4.88;;
49578;SDS011;35483;50.828;3.228;2022-10-31T00:58:17;5.72;;;4.65;;
49578;SDS011;35483;50.828;3.228;2022-10-31T01:00:43;6.55;;;4.53;;
49578;SDS011;35483;50.828;3.228;2022-10-31T01:03:08;6.53;;;5.22;;
49578;SDS011;35483;50.828;3.228;2022-10-31T01:05:34;5.28;;;4.38;;
49578;SDS011;35483;50.828;3.228;2022-10-31T01:07:59;7.38;;;5.28;;
49578;SDS011;35483;50.828;3.228;2022-10-31T01:10:25;7.45;;;4.97;;
49578;SDS011;35483;50.828;3.228;2022-10-31T01:12:51;6.90;;;4.65;;
49578;SDS011;35483;50.828;3.228;2022-10-31T01:15:18;6.45;;;4.93;;
49578;SDS011;35483;50.828;3.228;2022-10-31T01:17:45;6.80;;;4.82;;
49578;SDS011;35483;50.828;3.228;2022-10-31T01:20:12;7.90;;;5.28;;
49578;SDS011;35483;50.828;3.228;2022-10-31T01:22:39;6.97;;;5.18;;
49578;SDS011;35483;50.828;3.228;2022-10-31T01:25:05;7.63;;;4.80;;
49578;SDS011;35483;50.828;3.228;2022-10-31T01:27:31;6.13;;;5.30;;
49578;SDS011;35483;50.828;3.228;2022-10-31T01:29:57;6.90;;;5.88;;
49578;SDS011;35483;50.828;3.228;2022-10-31T01:32:23;6.13;;;5.47;;
49578;SDS011;35483;50.828;3.228;2022-10-31T01:34:49;6.72;;;5.35;;
49578;SDS011;35483;50.828;3.228;2022-10-31T01:37:15;7.85;;;5.78;;
49578;SDS011;35483;50.828;3.228;2022-10-31T01:39:40;6.40;;;5.60;;
49578;SDS011;35483;50.828;3.228;2022-10-31T01:42:06;6.47;;;5.00;;
49578;SDS011;35483;50.828;3.228;2022-10-31T01:52:09;6.75;;;4.80;;
49578;SDS011;35483;50.828;3.228;2022-10-31T01:54:51;7.60;;;5.90;;
49578;SDS011;35483;50.828;3.228;2022-10-31T01:57:21;6.85;;;4.97;;
49578;SDS011;35483;50.828;3.228;2022-10-31T01:59:47;7.25;;;5.28;;
49578;SDS011;35483;50.828;3.228;2022-10-31T02:02:17;9.18;;;5.85;;
49578;SDS011;35483;50.828;3.228;2022-10-31T02:04:43;9.77;;;5.22;;
49578;SDS011;35483;50.828;3.228;2022-10-31T02:07:11;8.10;;;5.20;;
49578;SDS011;35483;50.828;3.228;2022-10-31T02:09:47;6.88;;;5.22;;
49578;SDS011;35483;50.828;3.228;2022-10-31T02:12:14;7.03;;;5.63;;
49578;SDS011;35483;50.828;3.228;2022-10-31T02:14:41;7.35;;;5.30;;
49578;SDS011;35483;50.828;3.228;2022-10-31T02:17:07;7.95;;;6.00;;
49578;SDS011;35483;50.828;3.228;2022-10-31T02:19:54;8.13;;;6.05;;
49578;SDS011;35483;50.828;3.228;2022-10-31T02:22:56;7.88;;;6.35;;
49578;SDS011;35483;50.828;3.228;2022-10-31T02:29:10;10.43;;;6.15;;
49578;SDS011;35483;50.828;3.228;2022-10-31T02:31:33;9.05;;;6.78;;
49578;SDS011;35483;50.828;3.228;2022-10-31T02:34:22;7.43;;;5.88;;
49578;SDS011;35483;50.828;3.228;2022-10-31T02:37:06;7.10;;;6.28;;
49578;SDS011;35483;50.828;3.228;2022-10-31T02:45:28;9.18;;;6.13;;
49578;SDS011;35483;50.828;3.228;2022-10-31T02:48:00;7.90;;;5.90;;
49578;SDS011;35483;50.828;3.228;2022-10-31T02:50:33;8.68;;;6.18;;
49578;SDS011;35483;50.828;3.228;2022-10-31T02:53:04;8.48;;;6.18;;
49578;SDS011;35483;50.828;3.228;2022-10-31T02:57:59;10.52;;;6.28;;
49578;SDS011;35483;50.828;3.228;2022-10-31T03:00:37;7.68;;;5.68;;
49578;SDS011;35483;50.828;3.228;2022-10-31T03:05:58;7.70;;;5.85;;
49578;SDS011;35483;50.828;3.228;2022-10-31T03:11:11;7.43;;;6.15;;
49578;SDS011;35483;50.828;3.228;2022-10-31T03:13:48;7.65;;;6.40;;
49578;SDS011;35483;50.828;3.228;2022-10-31T03:16:16;9.88;;;6.28;;
49578;SDS011;35483;50.828;3.228;2022-10-31T03:18:53;10.68;;;6.63;;
49578;SDS011;35483;50.828;3.228;2022-10-31T03:21:26;8.02;;;6.47;;
49578;SDS011;35483;50.828;3.228;2022-10-31T03:23:55;8.65;;;6.97;;
49578;SDS011;35483;50.828;3.228;2022-10-31T03:26:22;10.10;;;6.97;;
49578;SDS011;35483;50.828;3.228;2022-10-31T03:28:55;10.50;;;7.32;;
49578;SDS011;35483;50.828;3.228;2022-10-31T03:33:54;8.50;;;7.05;;
49578;SDS011;35483;50.828;3.228;2022-10-31T03:36:23;8.95;;;6.25;;
49578;SDS011;35483;50.828;3.228;2022-10-31T03:38:53;10.05;;;6.47;;
49578;SDS011;35483;50.828;3.228;2022-10-31T03:41:21;10.60;;;6.68;;
49578;SDS011;35483;50.828;3.228;2022-10-31T03:44:03;7.90;;;6.50;;
49578;SDS011;35483;50.828;3.228;2022-10-31T03:46:33;10.80;;;7.38;;
49578;SDS011;35483;50.828;3.228;2022-10-31T03:48:59;9.60;;;6.63;;
49578;SDS011;35483;50.828;3.228;2022-10-31T03:54:01;9.45;;;6.97;;
49578;SDS011;35483;50.828;3.228;2022-10-31T03:56:44;10.10;;;6.23;;
49578;SDS011;35483;50.828;3.228;2022-10-31T03:59:18;8.50;;;6.45;;
49578;SDS011;35483;50.828;3.228;2022-10-31T04:01:57;11.98;;;6.90;;
49578;SDS011;35483;50.828;3.228;2022-10-31T04:04:26;7.18;;;5.75;;
49578;SDS011;35483;50.828;3.228;2022-10-31T04:06:53;8.40;;;6.03;;
49578;SDS011;35483;50.828;3.228;2022-10-31T04:09:21;10.20;;;6.05;;
49578;SDS011;35483;50.828;3.228;2022-10-31T04:11:50;9.23;;;6.28;;
49578;SDS011;35483;50.828;3.228;2022-10-31T04:14:19;7.15;;;6.10;;
49578;SDS011;35483;50.828;3.228;2022-10-31T04:16:46;7.95;;;6.00;;
49578;SDS011;35483;50.828;3.228;2022-10-31T04:19:12;8.88;;;6.70;;
49578;SDS011;35483;50.828;3.228;2022-10-31T04:21:39;7.00;;;6.15;;
49578;SDS011;35483;50.828;3.228;2022-10-31T04:24:08;7.85;;;6.10;;
49578;SDS011;35483;50.828;3.228;2022-10-31T04:26:34;8.27;;;6.00;;
49578;SDS011;35483;50.828;3.228;2022-10-31T04:29:00;7.10;;;6.15;;
49578;SDS011;35483;50.828;3.228;2022-10-31T04:31:26;8.77;;;5.90;;
49578;SDS011;35483;50.828;3.228;2022-10-31T04:33:51;9.68;;;6.75;;
49578;SDS011;35483;50.828;3.228;2022-10-31T04:36:17;8.40;;;6.53;;
49578;SDS011;35483;50.828;3.228;2022-10-31T04:38:43;7.35;;;6.32;;
49578;SDS011;35483;50.828;3.228;2022-10-31T04:41:09;8.68;;;6.57;;
49578;SDS011;35483;50.828;3.228;2022-10-31T04:43:34;8.63;;;6.40;;
49578;SDS011;35483;50.828;3.228;2022-10-31T04:46:00;9.32;;;6.80;;
49578;SDS011;35483;50.828;3.228;2022-10-31T04:48:26;9.20;;;6.35;;
49578;SDS011;35483;50.828;3.228;2022-10-31T04:50:52;10.13;;;6.95;;
49578;SDS011;35483;50.828;3.228;2022-10-31T04:53:17;8.77;;;6.30;;
49578;SDS011;35483;50.828;3.228;2022-10-31T04:55:43;8.88;;;6.32;;
49578;SDS011;35483;50.828;3.228;2022-10-31T04:58:09;7.50;;;6.53;;
49578;SDS011;35483;50.828;3.228;2022-10-31T05:00:34;10.18;;;6.90;;
49578;SDS011;35483;50.828;3.228;2022-10-31T05:03:00;9.02;;;6.30;;
49578;SDS011;35483;50.828;3.228;2022-10-31T05:05:27;6.68;;;5.85;;
49578;SDS011;35483;50.828;3.228;2022-10-31T05:07:55;9.73;;;7.38;;
49578;SDS011;35483;50.828;3.228;2022-10-31T05:10:22;9.65;;;7.38;;
49578;SDS011;35483;50.828;3.228;2022-10-31T05:12:52;11.95;;;8.10;;
49578;SDS011;35483;50.828;3.228;2022-10-31T05:15:20;11.85;;;8.07;;
49578;SDS011;35483;50.828;3.228;2022-10-31T05:17:47;11.13;;;7.57;;
49578;SDS011;35483;50.828;3.228;2022-10-31T05:20:13;11.35;;;7.28;;
49578;SDS011;35483;50.828;3.228;2022-10-31T05:22:43;9.43;;;7.35;;
49578;SDS011;35483;50.828;3.228;2022-10-31T05:25:11;10.02;;;7.53;;
49578;SDS011;35483;50.828;3.228;2022-10-31T05:27:40;8.90;;;6.80;;
49578;SDS011;35483;50.828;3.228;2022-10-31T05:30:07;8.77;;;7.38;;
49578;SDS011;35483;50.828;3.228;2022-10-31T05:32:38;7.80;;;7.00;;
49578;SDS011;35483;50.828;3.228;2022-10-31T05:35:05;10.65;;;8.02;;
49578;SDS011;35483;50.828;3.228;2022-10-31T05:37:33;10.27;;;8.25;;
49578;SDS011;35483;50.828;3.228;2022-10-31T05:40:00;11.85;;;8.27;;
49578;SDS011;35483;50.828;3.228;2022-10-31T05:42:26;13.18;;;9.75;;
49578;SDS011;35483;50.828;3.228;2022-10-31T05:44:52;12.52;;;8.15;;
49578;SDS011;35483;50.828;3.228;2022-10-31T05:47:17;11.77;;;9.55;;
49578;SDS011;35483;50.828;3.228;2022-10-31T05:49:43;14.23;;;9.20;;
49578;SDS011;35483;50.828;3.228;2022-10-31T05:52:09;13.63;;;8.98;;
49578;SDS011;35483;50.828;3.228;2022-10-31T05:54:34;11.70;;;8.82;;
49578;SDS011;35483;50.828;3.228;2022-10-31T05:57:00;11.25;;;9.07;;
49578;SDS011;35483;50.828;3.228;2022-10-31T05:59:25;11.15;;;8.75;;
49578;SDS011;35483;50.828;3.228;2022-10-31T06:01:51;10.40;;;8.57;;
49578;SDS011;35483;50.828;3.228;2022-10-31T06:04:17;12.18;;;9.13;;
49578;SDS011;35483;50.828;3.228;2022-10-31T06:06:42;13.25;;;9.45;;
49578;SDS011;35483;50.828;3.228;2022-10-31T06:09:08;12.20;;;8.93;;
49578;SDS011;35483;50.828;3.228;2022-10-31T06:11:33;13.15;;;8.70;;
49578;SDS011;35483;50.828;3.228;2022-10-31T06:13:59;8.80;;;7.82;;
49578;SDS011;35483;50.828;3.228;2022-10-31T06:16:25;10.90;;;8.80;;
49578;SDS011;35483;50.828;3.228;2022-10-31T06:18:50;12.00;;;9.02;;
49578;SDS011;35483;50.828;3.228;2022-10-31T06:21:16;12.93;;;8.90;;
49578;SDS011;35483;50.828;3.228;2022-10-31T06:23:41;11.55;;;8.98;;
49578;SDS011;35483;50.828;3.228;2022-10-31T06:26:07;11.48;;;8.82;;
49578;SDS011;35483;50.828;3.228;2022-10-31T06:28:33;14.05;;;9.02;;
49578;SDS011;35483;50.828;3.228;2022-10-31T06:30:58;11.25;;;8.45;;
49578;SDS011;35483;50.828;3.228;2022-10-31T06:33:24;10.20;;;8.27;;
49578;SDS011;35483;50.828;3.228;2022-10-31T06:35:50;12.65;;;9.07;;
49578;SDS011;35483;50.828;3.228;2022-10-31T06:38:16;13.57;;;8.88;;
49578;SDS011;35483;50.828;3.228;2022-10-31T06:40:42;10.85;;;8.95;;
49578;SDS011;35483;50.828;3.228;2022-10-31T06:43:08;12.43;;;8.88;;
49578;SDS011;35483;50.828;3.228;2022-10-31T06:45:33;11.52;;;8.57;;
49578;SDS011;35483;50.828;3.228;2022-10-31T06:47:59;12.48;;;8.45;;
49578;SDS011;35483;50.828;3.228;2022-10-31T06:50:25;19.17;;;15.25;;
49578;SDS011;35483;50.828;3.228;2022-10-31T06:52:51;16.40;;;12.48;;
49578;SDS011;35483;50.828;3.228;2022-10-31T06:55:18;14.63;;;11.00;;
49578;SDS011;35483;50.828;3.228;2022-10-31T06:57:54;13.20;;;11.10;;
49578;SDS011;35483;50.828;3.228;2022-10-31T07:00:21;14.95;;;10.73;;
49578;SDS011;35483;50.828;3.228;2022-10-31T07:05:27;14.25;;;9.90;;
49578;SDS011;35483;50.828;3.228;2022-10-31T07:07:58;11.77;;;9.57;;
49578;SDS011;35483;50.828;3.228;2022-10-31T07:10:29;13.93;;;10.20;;
49578;SDS011;35483;50.828;3.228;2022-10-31T07:12:56;15.07;;;10.48;;
49578;SDS011;35483;50.828;3.228;2022-10-31T07:15:23;17.25;;;12.80;;
49578;SDS011;35483;50.828;3.228;2022-10-31T07:17:50;15.85;;;14.15;;
49578;SDS011;35483;50.828;3.228;2022-10-31T07:20:16;15.52;;;12.70;;
49578;SDS011;35483;50.828;3.228;2022-10-31T07:22:42;16.48;;;13.43;;
49578;SDS011;35483;50.828;3.228;2022-10-31T07:25:08;15.95;;;13.52;;
49578;SDS011;35483;50.828;3.228;2022-10-31T07:30:03;16.45;;;11.52;;
49578;SDS011;35483;50.828;3.228;2022-10-31T07:33:03;15.48;;;11.07;;
49578;SDS011;35483;50.828;3.228;2022-10-31T07:35:23;15.07;;;11.25;;
49578;SDS011;35483;50.828;3.228;2022-10-31T07:37:51;16.90;;;12.90;;
49578;SDS011;35483;50.828;3.228;2022-10-31T07:40:17;18.02;;;12.88;;
49578;SDS011;35483;50.828;3.228;2022-10-31T07:42:44;17.73;;;12.45;;
49578;SDS011;35483;50.828;3.228;2022-10-31T07:45:12;18.92;;;12.90;;
49578;SDS011;35483;50.828;3.228;2022-10-31T07:50:06;20.08;;;13.05;;
49578;SDS011;35483;50.828;3.228;2022-10-31T07:52:33;19.90;;;12.90;;
49578;SDS011;35483;50.828;3.228;2022-10-31T07:54:59;19.00;;;12.38;;
49578;SDS011;35483;50.828;3.228;2022-10-31T07:57:25;16.42;;;11.43;;
49578;SDS011;35483;50.828;3.228;2022-10-31T07:59:51;18.13;;;12.85;;
49578;SDS011;35483;50.828;3.228;2022-10-31T08:02:16;19.45;;;13.20;;
49578;SDS011;35483;50.828;3.228;2022-10-31T08:04:42;17.60;;;12.73;;
49578;SDS011;35483;50.828;3.228;2022-10-31T08:07:07;18.33;;;12.38;;
49578;SDS011;35483;50.828;3.228;2022-10-31T08:09:33;15.35;;;12.13;;
49578;SDS011;35483;50.828;3.228;2022-10-31T08:11:59;19.70;;;13.05;;
49578;SDS011;35483;50.828;3.228;2022-10-31T08:14:24;18.35;;;12.65;;
49578;SDS011;35483;50.828;3.228;2022-10-31T08:16:50;17.58;;;11.93;;
49578;SDS011;35483;50.828;3.228;2022-10-31T08:19:17;17.15;;;12.40;;
49578;SDS011;35483;50.828;3.228;2022-10-31T08:21:43;17.23;;;11.80;;
49578;SDS011;35483;50.828;3.228;2022-10-31T08:24:09;17.70;;;12.60;;
49578;SDS011;35483;50.828;3.228;2022-10-31T08:26:34;17.00;;;11.85;;
49578;SDS011;35483;50.828;3.228;2022-10-31T08:29:00;18.33;;;12.13;;
49578;SDS011;35483;50.828;3.228;2022-10-31T08:31:26;16.00;;;11.95;;
49578;SDS011;35483;50.828;3.228;2022-10-31T08:33:53;15.75;;;11.05;;
49578;SDS011;35483;50.828;3.228;2022-10-31T08:36:21;16.85;;;11.40;;
49578;SDS011;35483;50.828;3.228;2022-10-31T08:38:47;18.35;;;12.00;;
49578;SDS011;35483;50.828;3.228;2022-10-31T08:41:13;16.33;;;12.00;;
49578;SDS011;35483;50.828;3.228;2022-10-31T08:43:39;17.83;;;11.82;;
49578;SDS011;35483;50.828;3.228;2022-10-31T08:46:04;15.98;;;11.80;;
49578;SDS011;35483;50.828;3.228;2022-10-31T08:48:30;17.55;;;11.88;;
49578;SDS011;35483;50.828;3.228;2022-10-31T08:50:57;17.52;;;11.80;;
49578;SDS011;35483;50.828;3.228;2022-10-31T08:53:23;13.52;;;11.05;;
49578;SDS011;35483;50.828;3.228;2022-10-31T08:55:53;13.88;;;10.88;;
49578;SDS011;35483;50.828;3.228;2022-10-31T08:58:20;16.00;;;11.25;;
49578;SDS011;35483;50.828;3.228;2022-10-31T09:00:47;16.35;;;11.40;;
49578;SDS011;35483;50.828;3.228;2022-10-31T09:03:20;13.48;;;10.40;;
49578;SDS011;35483;50.828;3.228;2022-10-31T09:05:47;14.57;;;10.45;;
49578;SDS011;35483;50.828;3.228;2022-10-31T09:08:13;14.23;;;10.27;;
49578;SDS011;35483;50.828;3.228;2022-10-31T09:10:40;13.95;;;11.05;;
49578;SDS011;35483;50.828;3.228;2022-10-31T09:13:06;15.27;;;10.80;;
49578;SDS011;35483;50.828;3.228;2022-10-31T09:15:35;12.30;;;9.55;;
49578;SDS011;35483;50.828;3.228;2022-10-31T09:18:04;13.35;;;9.70;;
49578;SDS011;35483;50.828;3.228;2022-10-31T09:20:31;15.02;;;11.00;;
49578;SDS011;35483;50.828;3.228;2022-10-31T09:22:59;17.13;;;11.25;;
49578;SDS011;35483;50.828;3.228;2022-10-31T09:25:26;12.50;;;9.05;;
49578;SDS011;35483;50.828;3.228;2022-10-31T09:27:56;17.27;;;9.57;;
49578;SDS011;35483;50.828;3.228;2022-10-31T09:30:23;14.88;;;9.65;;
49578;SDS011;35483;50.828;3.228;2022-10-31T09:32:59;13.27;;;9.75;;
49578;SDS011;35483;50.828;3.228;2022-10-31T09:35:26;12.48;;;8.57;;
49578;SDS011;35483;50.828;3.228;2022-10-31T09:38:00;13.55;;;9.15;;
49578;SDS011;35483;50.828;3.228;2022-10-31T09:40:38;17.27;;;9.93;;
49578;SDS011;35483;50.828;3.228;2022-10-31T09:43:07;15.98;;;9.50;;
49578;SDS011;35483;50.828;3.228;2022-10-31T09:45:43;15.18;;;10.00;;
49578;SDS011;35483;50.828;3.228;2022-10-31T09:50:55;13.75;;;9.15;;
49578;SDS011;35483;50.828;3.228;2022-10-31T09:56:14;12.90;;;9.15;;
49578;SDS011;35483;50.828;3.228;2022-10-31T09:59:02;14.05;;;9.13;;
49578;SDS011;35483;50.828;3.228;2022-10-31T10:07:10;12.82;;;8.45;;
49578;SDS011;35483;50.828;3.228;2022-10-31T10:09:50;12.52;;;8.50;;
49578;SDS011;35483;50.828;3.228;2022-10-31T10:12:23;12.68;;;9.02;;
49578;SDS011;35483;50.828;3.228;2022-10-31T10:25:38;9.35;;;8.27;;
49578;SDS011;35483;50.828;3.228;2022-10-31T10:28:16;10.43;;;7.60;;
49578;SDS011;35483;50.828;3.228;2022-10-31T10:30:53;9.15;;;7.55;;
49578;SDS011;35483;50.828;3.228;2022-10-31T10:34:10;8.45;;;7.32;;
49578;SDS011;35483;50.828;3.228;2022-10-31T10:38:57;13.57;;;7.70;;
49578;SDS011;35483;50.828;3.228;2022-10-31T10:41:29;8.68;;;6.38;;
49578;SDS011;35483;50.828;3.228;2022-10-31T10:43:57;6.75;;;6.05;;
49578;SDS011;35483;50.828;3.228;2022-10-31T10:46:29;7.07;;;5.70;;
49578;SDS011;35483;50.828;3.228;2022-10-31T10:54:54;7.40;;;4.75;;
49578;SDS011;35483;50.828;3.228;2022-10-31T11:03:11;6.53;;;5.00;;
49578;SDS011;35483;50.828;3.228;2022-10-31T11:06:00;7.82;;;5.15;;
49578;SDS011;35483;50.828;3.228;2022-10-31T11:08:27;8.35;;;5.50;;
49578;SDS011;35483;50.828;3.228;2022-10-31T11:10:58;9.88;;;4.97;;
49578;SDS011;35483;50.828;3.228;2022-10-31T11:13:28;6.60;;;5.72;;
49578;SDS011;35483;50.828;3.228;2022-10-31T11:16:00;6.10;;;5.05;;
49578;SDS011;35483;50.828;3.228;2022-10-31T11:18:30;6.97;;;5.53;;
49578;SDS011;35483;50.828;3.228;2022-10-31T11:20:59;5.68;;;5.07;;
49578;SDS011;35483;50.828;3.228;2022-10-31T11:23:30;6.45;;;4.80;;
49578;SDS011;35483;50.828;3.228;2022-10-31T11:25:58;6.22;;;5.10;;
49578;SDS011;35483;50.828;3.228;2022-10-31T11:28:29;6.95;;;4.78;;
49578;SDS011;35483;50.828;3.228;2022-10-31T11:30:58;7.20;;;5.32;;
49578;SDS011;35483;50.828;3.228;2022-10-31T11:38:48;7.10;;;5.50;;
49578;SDS011;35483;50.828;3.228;2022-10-31T11:41:23;7.30;;;4.82;;
49578;SDS011;35483;50.828;3.228;2022-10-31T11:44:03;8.75;;;5.30;;
49578;SDS011;35483;50.828;3.228;2022-10-31T11:49:27;8.73;;;5.72;;
49578;SDS011;35483;50.828;3.228;2022-10-31T11:52:21;7.43;;;5.03;;
49578;SDS011;35483;50.828;3.228;2022-10-31T11:54:58;9.20;;;5.18;;
49578;SDS011;35483;50.828;3.228;2022-10-31T11:57:46;7.40;;;5.40;;
49578;SDS011;35483;50.828;3.228;2022-10-31T12:02:50;6.95;;;5.18;;
49578;SDS011;35483;50.828;3.228;2022-10-31T12:05:22;6.95;;;5.15;;
49578;SDS011;35483;50.828;3.228;2022-10-31T12:07:58;7.97;;;5.43;;
49578;SDS011;35483;50.828;3.228;2022-10-31T12:10:25;9.18;;;5.20;;
49578;SDS011;35483;50.828;3.228;2022-10-31T12:16:16;7.60;;;5.10;;
49578;SDS011;35483;50.828;3.228;2022-10-31T12:21:41;6.70;;;5.03;;
49578;SDS011;35483;50.828;3.228;2022-10-31T12:24:32;11.55;;;5.28;;
49578;SDS011;35483;50.828;3.228;2022-10-31T12:43:16;10.10;;;6.47;;
49578;SDS011;35483;50.828;3.228;2022-10-31T12:46:03;10.68;;;6.25;;
49578;SDS011;35483;50.828;3.228;2022-10-31T12:48:57;9.48;;;6.25;;
49578;SDS011;35483;50.828;3.228;2022-10-31T12:54:30;8.05;;;6.32;;
49578;SDS011;35483;50.828;3.228;2022-10-31T12:57:05;13.07;;;7.50;;
49578;SDS011;35483;50.828;3.228;2022-10-31T12:59:44;8.50;;;6.22;;
49578;SDS011;35483;50.828;3.228;2022-10-31T13:04:50;10.25;;;6.40;;
49578;SDS011;35483;50.828;3.228;2022-10-31T13:07:46;10.18;;;7.15;;
49578;SDS011;35483;50.828;3.228;2022-10-31T13:12:46;10.57;;;7.50;;
49578;SDS011;35483;50.828;3.228;2022-10-31T13:15:22;10.75;;;6.97;;
49578;SDS011;35483;50.828;3.228;2022-10-31T13:18:10;10.25;;;7.03;;
49578;SDS011;35483;50.828;3.228;2022-10-31T13:20:42;10.35;;;6.68;;
49578;SDS011;35483;50.828;3.228;2022-10-31T13:25:58;10.77;;;6.78;;
49578;SDS011;35483;50.828;3.228;2022-10-31T13:28:36;8.95;;;6.53;;
49578;SDS011;35483;50.828;3.228;2022-10-31T13:31:08;11.27;;;6.63;;
49578;SDS011;35483;50.828;3.228;2022-10-31T13:33:53;11.75;;;6.82;;
49578;SDS011;35483;50.828;3.228;2022-10-31T13:36:43;12.88;;;7.57;;
49578;SDS011;35483;50.828;3.228;2022-10-31T13:39:32;8.02;;;6.90;;
49578;SDS011;35483;50.828;3.228;2022-10-31T13:45:17;10.93;;;7.82;;
49578;SDS011;35483;50.828;3.228;2022-10-31T13:47:55;11.38;;;7.20;;
49578;SDS011;35483;50.828;3.228;2022-10-31T13:52:49;13.82;;;7.07;;
49578;SDS011;35483;50.828;3.228;2022-10-31T13:55:35;8.60;;;6.88;;
49578;SDS011;35483;50.828;3.228;2022-10-31T13:58:25;13.75;;;8.07;;
49578;SDS011;35483;50.828;3.228;2022-10-31T14:03:56;9.60;;;7.13;;
49578;SDS011;35483;50.828;3.228;2022-10-31T14:06:22;13.25;;;7.75;;
49578;SDS011;35483;50.828;3.228;2022-10-31T14:08:59;13.30;;;8.15;;
49578;SDS011;35483;50.828;3.228;2022-10-31T14:11:25;12.68;;;9.00;;
49578;SDS011;35483;50.828;3.228;2022-10-31T14:13:52;10.60;;;7.78;;
49578;SDS011;35483;50.828;3.228;2022-10-31T14:16:25;12.00;;;7.80;;
49578;SDS011;35483;50.828;3.228;2022-10-31T14:19:04;14.20;;;7.70;;
49578;SDS011;35483;50.828;3.228;2022-10-31T14:21:43;12.20;;;7.55;;
49578;SDS011;35483;50.828;3.228;2022-10-31T14:29:26;11.93;;;8.18;;
49578;SDS011;35483;50.828;3.228;2022-10-31T14:32:01;19.17;;;7.97;;
49578;SDS011;35483;50.828;3.228;2022-10-31T14:40:23;11.63;;;8.55;;
49578;SDS011;35483;50.828;3.228;2022-10-31T14:42:58;13.38;;;8.63;;
49578;SDS011;35483;50.828;3.228;2022-10-31T14:48:43;13.32;;;8.93;;
49578;SDS011;35483;50.828;3.228;2022-10-31T14:51:46;13.95;;;9.23;;
49578;SDS011;35483;50.828;3.228;2022-10-31T14:54:13;15.52;;;9.20;;
49578;SDS011;35483;50.828;3.228;2022-10-31T14:56:48;12.65;;;9.15;;
49578;SDS011;35483;50.828;3.228;2022-10-31T14:59:18;13.13;;;8.85;;
49578;SDS011;35483;50.828;3.228;2022-10-31T15:01:53;12.77;;;9.23;;
49578;SDS011;35483;50.828;3.228;2022-10-31T15:04:34;15.00;;;8.88;;
49578;SDS011;35483;50.828;3.228;2022-10-31T15:07:17;15.00;;;9.65;;
49578;SDS011;35483;50.828;3.228;2022-10-31T15:12:27;14.60;;;9.45;;
49578;SDS011;35483;50.828;3.228;2022-10-31T15:14:54;13.80;;;10.13;;
49578;SDS011;35483;50.828;3.228;2022-10-31T15:17:21;14.43;;;9.32;;
49578;SDS011;35483;50.828;3.228;2022-10-31T15:19:48;17.02;;;10.18;;
49578;SDS011;35483;50.828;3.228;2022-10-31T15:22:16;12.60;;;9.98;;
49578;SDS011;35483;50.828;3.228;2022-10-31T15:24:44;11.43;;;9.70;;
49578;SDS011;35483;50.828;3.228;2022-10-31T15:27:11;14.05;;;10.43;;
49578;SDS011;35483;50.828;3.228;2022-10-31T15:34:50;16.17;;;12.07;;
49578;SDS011;35483;50.828;3.228;2022-10-31T15:37:20;18.25;;;12.20;;
49578;SDS011;35483;50.828;3.228;2022-10-31T15:39:48;19.30;;;11.73;;
49578;SDS011;35483;50.828;3.228;2022-10-31T15:42:21;19.17;;;12.40;;
49578;SDS011;35483;50.828;3.228;2022-10-31T15:45:01;19.02;;;12.60;;
49578;SDS011;35483;50.828;3.228;2022-10-31T15:47:31;18.27;;;13.13;;
49578;SDS011;35483;50.828;3.228;2022-10-31T15:49:58;16.50;;;12.82;;
49578;SDS011;35483;50.828;3.228;2022-10-31T15:52:41;19.27;;;13.13;;
49578;SDS011;35483;50.828;3.228;2022-10-31T15:57:39;19.00;;;13.70;;
49578;SDS011;35483;50.828;3.228;2022-10-31T16:00:20;15.75;;;12.20;;
49578;SDS011;35483;50.828;3.228;2022-10-31T16:03:06;20.70;;;13.02;;
49578;SDS011;35483;50.828;3.228;2022-10-31T16:05:49;16.02;;;12.55;;
49578;SDS011;35483;50.828;3.228;2022-10-31T16:11:13;17.65;;;12.40;;
49578;SDS011;35483;50.828;3.228;2022-10-31T16:16:26;17.98;;;13.18;;
49578;SDS011;35483;50.828;3.228;2022-10-31T16:18:54;19.70;;;12.60;;
49578;SDS011;35483;50.828;3.228;2022-10-31T16:21:39;18.55;;;13.18;;
49578;SDS011;35483;50.828;3.228;2022-10-31T16:24:17;23.88;;;14.43;;
49578;SDS011;35483;50.828;3.228;2022-10-31T16:26:53;20.30;;;14.85;;
49578;SDS011;35483;50.828;3.228;2022-10-31T16:29:28;19.60;;;12.68;;
49578;SDS011;35483;50.828;3.228;2022-10-31T16:32:27;14.25;;;11.63;;
49578;SDS011;35483;50.828;3.228;2022-10-31T16:35:16;14.63;;;11.40;;
49578;SDS011;35483;50.828;3.228;2022-10-31T16:37:52;14.73;;;11.43;;
49578;SDS011;35483;50.828;3.228;2022-10-31T16:40:19;13.25;;;10.18;;
49578;SDS011;35483;50.828;3.228;2022-10-31T16:42:45;15.30;;;9.32;;
49578;SDS011;35483;50.828;3.228;2022-10-31T16:45:20;16.70;;;9.18;;
49578;SDS011;35483;50.828;3.228;2022-10-31T16:47:47;14.05;;;9.45;;
49578;SDS011;35483;50.828;3.228;2022-10-31T16:50:25;13.70;;;8.23;;
49578;SDS011;35483;50.828;3.228;2022-10-31T16:52:51;13.18;;;8.07;;
49578;SDS011;35483;50.828;3.228;2022-10-31T16:55:18;15.20;;;8.70;;
49578;SDS011;35483;50.828;3.228;2022-10-31T16:57:48;12.23;;;7.97;;
49578;SDS011;35483;50.828;3.228;2022-10-31T17:00:17;14.25;;;8.55;;
49578;SDS011;35483;50.828;3.228;2022-10-31T17:02:45;14.50;;;7.75;;
49578;SDS011;35483;50.828;3.228;2022-10-31T17:05:12;12.88;;;7.40;;
49578;SDS011;35483;50.828;3.228;2022-10-31T17:07:40;12.00;;;7.95;;
49578;SDS011;35483;50.828;3.228;2022-10-31T17:10:06;12.45;;;7.43;;
49578;SDS011;35483;50.828;3.228;2022-10-31T17:12:33;12.40;;;7.90;;
49578;SDS011;35483;50.828;3.228;2022-10-31T17:15:00;13.98;;;8.00;;
49578;SDS011;35483;50.828;3.228;2022-10-31T17:17:26;11.00;;;7.22;;
49578;SDS011;35483;50.828;3.228;2022-10-31T17:19:52;12.93;;;8.02;;
49578;SDS011;35483;50.828;3.228;2022-10-31T17:22:17;14.45;;;8.18;;
49578;SDS011;35483;50.828;3.228;2022-10-31T17:24:43;12.98;;;8.40;;
49578;SDS011;35483;50.828;3.228;2022-10-31T17:27:09;10.85;;;7.80;;
49578;SDS011;35483;50.828;3.228;2022-10-31T17:29:35;10.20;;;7.20;;
49578;SDS011;35483;50.828;3.228;2022-10-31T17:32:00;12.30;;;8.20;;